Time;durP1;ratioP1;P1;durP2;ratioP2;P2;SDS_P1;SDS_P2;PMS_P1;PMS_P2;Temp;Humidity;BMP_temperature;BMP_pressure;BME280_temperature;BME280_humidity;BME280_pressure;Samples;Min_cycle;Max_cycle;Signal;HPM_P1;HPM_P2
2023/08/30 00:01:28;;;;;;;31.03;16.40;;;17.30;99.90;;;;;;4437995;27;660930;-67
2023/08/30 00:04:15;;;;;;;28.67;16.00;;;17.30;99.90;;;;;;4456662;27;661582;-67
2023/08/30 00:07:05;;;;;;;27.97;15.57;;;17.30;99.90;;;;;;4444622;27;661325;-67
2023/08/30 00:09:52;;;;;;;29.47;15.60;;;17.30;99.90;;;;;;4451687;27;660410;-67
2023/08/30 00:12:41;;;;;;;29.60;15.07;;;17.30;99.90;;;;;;4447056;27;660753;-67
2023/08/30 00:15:28;;;;;;;26.97;15.13;;;17.20;99.90;;;;;;4436430;27;660908;-67
2023/08/30 00:18:15;;;;;;;27.53;14.37;;;17.20;99.90;;;;;;4452960;27;661378;-67
2023/08/30 00:21:02;;;;;;;24.80;13.47;;;17.20;99.90;;;;;;4435974;27;660973;-67
2023/08/30 00:23:51;;;;;;;23.23;13.23;;;17.20;99.90;;;;;;4448011;28;662461;-66
2023/08/30 00:26:38;;;;;;;21.80;12.57;;;17.20;99.90;;;;;;4435416;27;660519;-66
2023/08/30 00:29:25;;;;;;;19.13;11.60;;;17.10;99.90;;;;;;4455800;27;662738;-67
2023/08/30 00:32:13;;;;;;;15.10;9.70;;;17.10;99.90;;;;;;4433799;27;660933;-66
2023/08/30 00:35:00;;;;;;;18.10;9.63;;;17.10;99.90;;;;;;4451562;27;660028;-66
2023/08/30 00:37:47;;;;;;;17.20;9.87;;;17.00;99.90;;;;;;4440414;27;659657;-67
2023/08/30 00:40:40;;;;;;;18.30;9.40;;;17.00;99.90;;;;;;4460509;27;659892;-67
2023/08/30 00:43:27;;;;;;;17.67;9.43;;;17.00;99.90;;;;;;4414887;27;660137;-66
2023/08/30 00:46:15;;;;;;;16.70;9.40;;;16.90;99.90;;;;;;4458103;27;660359;-67
2023/08/30 00:49:03;;;;;;;16.33;9.93;;;16.90;99.90;;;;;;4432925;27;659539;-67
2023/08/30 00:51:50;;;;;;;17.03;9.63;;;16.90;99.90;;;;;;4456930;27;660683;-66
2023/08/30 00:54:37;;;;;;;16.57;9.70;;;16.90;99.90;;;;;;4440682;27;659828;-67
2023/08/30 00:57:26;;;;;;;17.80;10.57;;;16.80;99.90;;;;;;4455070;27;661474;-66
2023/08/30 01:00:13;;;;;;;17.47;11.23;;;16.70;99.90;;;;;;4434027;27;660714;-66
2023/08/30 01:03:01;;;;;;;18.10;10.30;;;16.70;99.90;;;;;;4451174;27;661229;-67
2023/08/30 01:05:48;;;;;;;19.27;10.90;;;16.70;99.90;;;;;;4430869;27;660552;-67
2023/08/30 01:08:35;;;;;;;20.10;11.53;;;16.70;99.90;;;;;;4458435;27;661376;-66
2023/08/30 01:11:26;;;;;;;22.60;11.83;;;16.70;99.90;;;;;;4437031;27;660748;-67
2023/08/30 01:14:16;;;;;;;24.60;12.73;;;16.70;99.90;;;;;;4437263;27;660544;-66
2023/08/30 01:17:04;;;;;;;23.47;12.17;;;16.70;99.90;;;;;;4428692;27;661397;-66
2023/08/30 01:19:55;;;;;;;28.10;12.73;;;16.70;99.90;;;;;;4455025;27;661589;-66
2023/08/30 01:22:46;;;;;;;28.97;13.03;;;16.70;99.90;;;;;;4419359;27;663134;-67
2023/08/30 01:25:44;;;;;;;25.97;12.60;;;16.70;99.90;;;;;;4435181;27;661209;-66
2023/08/30 01:28:33;;;;;;;28.27;11.90;;;16.70;99.90;;;;;;4429191;27;661748;-66
2023/08/30 01:31:20;;;;;;;27.07;12.60;;;16.70;99.90;;;;;;4427511;27;661021;-66
2023/08/30 01:34:07;;;;;;;23.30;11.47;;;16.60;99.90;;;;;;4449029;27;660987;-66
2023/08/30 01:36:55;;;;;;;20.97;11.23;;;16.60;99.90;;;;;;4462432;27;661542;-66
2023/08/30 01:39:43;;;;;;;27.87;11.43;;;16.60;99.90;;;;;;4452621;27;661093;-67
2023/08/30 01:42:30;;;;;;;25.40;11.47;;;16.60;99.90;;;;;;4458423;27;662365;-66
2023/08/30 01:45:19;;;;;;;24.93;12.57;;;16.60;99.90;;;;;;4449360;28;660793;-66
2023/08/30 01:48:07;;;;;;;27.17;12.00;;;16.60;99.90;;;;;;4456694;27;660520;-66
2023/08/30 01:50:58;;;;;;;25.50;12.00;;;16.60;99.90;;;;;;4438812;27;662051;-66
2023/08/30 01:53:46;;;;;;;22.90;12.10;;;16.60;99.90;;;;;;4437440;27;662032;-66
2023/08/30 01:56:33;;;;;;;22.10;12.33;;;16.60;99.90;;;;;;4437695;27;660835;-66
2023/08/30 01:59:20;;;;;;;21.60;12.47;;;16.60;99.90;;;;;;4455228;27;660670;-66
2023/08/30 02:02:09;;;;;;;25.77;13.40;;;16.60;99.90;;;;;;4432803;27;661615;-67
2023/08/30 02:04:56;;;;;;;25.57;13.77;;;16.60;99.90;;;;;;4455849;27;661136;-66
2023/08/30 02:07:47;;;;;;;28.40;14.23;;;16.60;99.90;;;;;;4437209;27;660683;-66
2023/08/30 02:10:36;;;;;;;34.20;14.77;;;16.60;99.90;;;;;;4439788;27;661988;-66
2023/08/30 02:13:27;;;;;;;34.93;15.20;;;16.60;99.90;;;;;;4433678;27;660758;-67
2023/08/30 02:16:14;;;;;;;33.43;15.37;;;16.60;99.90;;;;;;4433569;27;661621;-66
2023/08/30 02:19:03;;;;;;;39.30;16.93;;;16.60;99.90;;;;;;4455684;27;661955;-66
2023/08/30 02:21:50;;;;;;;40.77;15.83;;;16.60;99.90;;;;;;4433911;28;662390;-66
2023/08/30 02:24:37;;;;;;;34.27;15.43;;;16.60;99.90;;;;;;4433213;27;660654;-66
2023/08/30 02:27:25;;;;;;;33.23;15.63;;;16.60;99.90;;;;;;4450713;27;662199;-66
2023/08/30 02:30:12;;;;;;;35.53;15.50;;;16.60;99.90;;;;;;4457530;27;661817;-66
2023/08/30 02:32:59;;;;;;;33.10;15.13;;;16.50;99.90;;;;;;4436857;27;661514;-66
2023/08/30 02:35:48;;;;;;;39.43;16.17;;;16.50;99.90;;;;;;4457792;27;660460;-66
2023/08/30 02:38:35;;;;;;;35.73;15.57;;;16.50;99.90;;;;;;4434236;27;661154;-66
2023/08/30 02:41:22;;;;;;;40.23;16.90;;;16.50;99.90;;;;;;4434610;27;660646;-67
2023/08/30 02:44:11;;;;;;;36.37;16.33;;;16.50;99.90;;;;;;4458863;27;661545;-67
2023/08/30 02:46:58;;;;;;;38.80;15.43;;;16.60;99.90;;;;;;4436833;27;661123;-66
2023/08/30 02:49:46;;;;;;;34.53;15.60;;;16.60;99.90;;;;;;4453975;27;662197;-66
2023/08/30 02:52:34;;;;;;;32.33;15.13;;;16.60;99.90;;;;;;4436785;27;660975;-67
2023/08/30 02:55:21;;;;;;;35.03;15.73;;;16.60;99.90;;;;;;4456023;27;660674;-67
2023/08/30 02:58:09;;;;;;;36.90;16.07;;;16.60;99.90;;;;;;4433860;27;660849;-67
2023/08/30 03:00:56;;;;;;;40.90;16.57;;;16.60;99.90;;;;;;4457520;27;661014;-66
2023/08/30 03:03:43;;;;;;;41.53;17.07;;;16.60;99.90;;;;;;4435205;27;661038;-66
2023/08/30 03:06:30;;;;;;;41.23;18.30;;;16.60;99.90;;;;;;4451926;27;662538;-67
2023/08/30 03:09:19;;;;;;;42.43;18.03;;;16.70;99.90;;;;;;4428845;27;660701;-67
2023/08/30 03:12:07;;;;;;;35.33;16.57;;;16.70;99.90;;;;;;4456392;27;661209;-66
2023/08/30 03:14:55;;;;;;;39.67;17.17;;;16.70;99.90;;;;;;4433230;27;661622;-66
2023/08/30 03:17:42;;;;;;;41.53;16.70;;;16.70;99.90;;;;;;4443279;27;661646;-66
2023/08/30 03:20:30;;;;;;;37.83;15.70;;;16.60;99.90;;;;;;4455501;27;662220;-66
2023/08/30 03:23:17;;;;;;;39.63;17.47;;;16.60;99.90;;;;;;4452198;27;660747;-66
2023/08/30 03:26:15;;;;;;;42.13;16.40;;;16.60;99.90;;;;;;4460820;27;660566;-67
2023/08/30 03:29:02;;;;;;;37.07;16.53;;;16.60;99.90;;;;;;4410909;27;660961;-66
2023/08/30 03:31:50;;;;;;;39.73;16.93;;;16.60;99.90;;;;;;4455876;27;661874;-66
2023/08/30 03:34:37;;;;;;;43.60;16.80;;;16.60;99.90;;;;;;4456294;27;660733;-66
2023/08/30 03:37:25;;;;;;;40.00;17.67;;;16.60;99.90;;;;;;4461191;27;660628;-66
2023/08/30 03:40:13;;;;;;;43.00;16.90;;;16.60;99.90;;;;;;4443773;27;661795;-66
2023/08/30 03:43:01;;;;;;;52.00;17.87;;;16.60;99.90;;;;;;4453731;27;661239;-66
2023/08/30 03:45:49;;;;;;;49.10;18.10;;;16.60;99.90;;;;;;4429520;27;661549;-66
2023/08/30 03:48:36;;;;;;;40.70;17.50;;;16.70;99.90;;;;;;4452944;28;661166;-66
2023/08/30 03:51:23;;;;;;;40.83;17.00;;;16.70;99.90;;;;;;4435095;27;660727;-66
2023/08/30 03:54:16;;;;;;;45.57;17.73;;;16.70;99.90;;;;;;4451065;27;662306;-67
2023/08/30 03:57:03;;;;;;;44.43;17.10;;;16.70;99.90;;;;;;4411924;27;660974;-66
2023/08/30 03:59:52;;;;;;;55.83;19.10;;;16.60;99.90;;;;;;4458529;27;662312;-66
2023/08/30 04:02:39;;;;;;;47.43;17.70;;;16.50;99.90;;;;;;4429332;27;661975;-66
2023/08/30 04:05:26;;;;;;;57.07;18.27;;;16.50;99.90;;;;;;4456117;27;661366;-66
2023/08/30 04:08:13;;;;;;;56.27;17.77;;;16.50;99.90;;;;;;4433384;27;661192;-66
2023/08/30 04:11:01;;;;;;;73.50;17.93;;;16.50;99.90;;;;;;4451811;27;661518;-66
2023/08/30 04:13:48;;;;;;;80.50;17.67;;;16.50;99.90;;;;;;4436569;27;661168;-66
2023/08/30 04:16:36;;;;;;;84.77;17.17;;;16.50;99.90;;;;;;4457772;27;660556;-66
2023/08/30 04:19:24;;;;;;;88.53;17.07;;;16.40;99.90;;;;;;4429556;27;660964;-66
2023/08/30 04:22:11;;;;;;;118.53;18.90;;;16.40;99.90;;;;;;4460134;27;660665;-66
2023/08/30 04:24:58;;;;;;;119.33;16.00;;;16.40;99.90;;;;;;4426677;27;661806;-66
2023/08/30 04:27:45;;;;;;;74.63;17.70;;;16.30;99.90;;;;;;4449956;27;664224;-66
2023/08/30 04:30:33;;;;;;;110.50;16.50;;;16.30;99.90;;;;;;4438307;27;661323;-66
2023/08/30 04:33:21;;;;;;;98.67;17.30;;;16.20;99.90;;;;;;4447370;27;662788;-66
2023/08/30 04:36:08;;;;;;;144.07;17.60;;;16.30;99.90;;;;;;4427520;27;660998;-67
2023/08/30 04:38:56;;;;;;;202.73;18.33;;;16.30;99.90;;;;;;4454653;27;662708;-66
2023/08/30 04:41:43;;;;;;;226.57;19.73;;;16.20;99.90;;;;;;4432910;28;662467;-66
2023/08/30 04:44:32;;;;;;;108.85;16.38;;;16.20;99.90;;;;;;4451393;27;663945;-66
2023/08/30 04:47:19;;;;;;;184.67;18.17;;;16.20;99.90;;;;;;4433517;27;661696;-66
2023/08/30 04:50:08;;;;;;;102.20;15.00;;;16.20;99.90;;;;;;4452426;27;662064;-66
2023/08/30 04:52:55;;;;;;;67.50;15.70;;;16.20;99.90;;;;;;4432363;27;663191;-66
2023/08/30 04:55:43;;;;;;;68.90;16.70;;;16.20;99.90;;;;;;4432403;28;660855;-66
2023/08/30 04:58:30;;;;;;;85.80;17.00;;;16.30;99.90;;;;;;4456265;27;662187;-67
2023/08/30 05:01:17;;;;;;;106.73;15.33;;;16.40;99.90;;;;;;4445164;27;661156;-66
2023/08/30 05:04:07;;;;;;;91.83;15.77;;;16.40;99.90;;;;;;4459736;27;662459;-66
2023/08/30 05:06:55;;;;;;;63.87;14.27;;;16.50;99.90;;;;;;4436750;27;661228;-66
2023/08/30 05:09:42;;;;;;;86.40;15.00;;;16.50;99.90;;;;;;4438955;27;660441;-66
2023/08/30 05:12:30;;;;;;;74.87;15.13;;;16.50;99.90;;;;;;4463882;27;661700;-66
2023/08/30 05:15:17;;;;;;;89.03;13.73;;;16.50;99.90;;;;;;4457668;27;661308;-66
2023/08/30 05:18:05;;;;;;;104.23;14.33;;;16.50;99.90;;;;;;4460367;27;660988;-67
2023/08/30 05:20:52;;;;;;;87.50;15.10;;;16.50;99.90;;;;;;4434343;27;661629;-66
2023/08/30 05:23:41;;;;;;;90.90;15.47;;;16.50;99.90;;;;;;4457986;27;660548;-72
2023/08/30 05:26:29;;;;;;;108.97;14.23;;;16.50;99.90;;;;;;4430201;27;660858;-72
2023/08/30 05:29:16;;;;;;;75.20;14.17;;;16.50;99.90;;;;;;4453327;27;662248;-73
2023/08/30 05:32:03;;;;;;;86.37;14.67;;;16.50;99.90;;;;;;4434111;27;661182;-73
2023/08/30 05:34:50;;;;;;;67.05;13.43;;;16.50;99.90;;;;;;4454267;27;662077;-72
2023/08/30 05:37:38;;;;;;;91.17;15.17;;;16.50;99.90;;;;;;4435702;27;660743;-73
2023/08/30 05:40:26;;;;;;;96.47;14.73;;;16.40;99.90;;;;;;4453414;27;661723;-72
2023/08/30 05:43:15;;;;;;;86.77;16.13;;;16.40;99.90;;;;;;4435723;28;660789;-72
2023/08/30 05:46:03;;;;;;;93.27;17.17;;;16.40;99.90;;;;;;4452824;27;661432;-74
2023/08/30 05:48:50;;;;;;;145.70;16.93;;;16.40;99.90;;;;;;4459796;27;660781;-72
2023/08/30 05:51:37;;;;;;;104.57;17.07;;;16.40;99.90;;;;;;4438559;27;661511;-72
2023/08/30 05:54:26;;;;;;;145.63;17.17;;;16.20;99.90;;;;;;4458397;27;661854;-71
2023/08/30 05:57:15;;;;;;;97.80;15.90;;;16.20;99.90;;;;;;4432784;27;662098;-72
2023/08/30 06:00:04;;;;;;;89.53;17.37;;;16.10;99.90;;;;;;4438330;27;660618;-72
2023/08/30 06:02:52;;;;;;;87.93;17.17;;;16.20;99.90;;;;;;4456201;27;661521;-71
2023/08/30 06:05:39;;;;;;;149.17;17.47;;;16.20;99.90;;;;;;4419454;28;661221;-71
2023/08/30 06:08:26;;;;;;;79.10;14.80;;;16.20;99.90;;;;;;4414153;28;661944;-70
2023/08/30 06:11:13;;;;;;;56.77;15.20;;;16.20;99.90;;;;;;4391388;28;660744;-71
2023/08/30 06:14:02;;;;;;;74.30;15.90;;;16.20;99.90;;;;;;4420534;28;661476;-71
2023/08/30 06:16:49;;;;;;;95.33;14.30;;;16.20;99.90;;;;;;4395782;28;662319;-71
2023/08/30 06:19:37;;;;;;;87.83;14.57;;;16.30;99.90;;;;;;4437774;28;661218;-71
2023/08/30 06:22:24;;;;;;;100.50;14.23;;;16.30;99.90;;;;;;4396503;28;661260;-71
2023/08/30 06:25:11;;;;;;;89.70;13.83;;;16.30;99.90;;;;;;4415528;28;662247;-71
2023/08/30 06:27:59;;;;;;;101.47;13.60;;;16.30;99.90;;;;;;4396082;28;661081;-71
2023/08/30 06:30:47;;;;;;;86.97;12.33;;;16.30;99.90;;;;;;4431957;28;661589;-71
2023/08/30 06:33:35;;;;;;;119.00;13.17;;;16.20;99.90;;;;;;4414005;28;662585;-71
2023/08/30 06:36:23;;;;;;;71.10;12.87;;;16.20;99.90;;;;;;4389388;28;661887;-71
2023/08/30 06:39:10;;;;;;;49.87;12.83;;;16.20;99.90;;;;;;4422051;28;662006;-71
2023/08/30 06:41:57;;;;;;;44.40;12.25;;;16.30;99.90;;;;;;4419617;28;661403;-71
2023/08/30 06:44:45;;;;;;;75.47;13.63;;;16.40;99.90;;;;;;4415594;28;661516;-72
2023/08/30 06:47:34;;;;;;;43.47;13.43;;;16.40;99.90;;;;;;4428016;28;661030;-72
2023/08/30 06:50:21;;;;;;;71.53;14.20;;;16.40;99.90;;;;;;4423292;28;660730;-71
2023/08/30 06:53:09;;;;;;;76.57;14.27;;;16.30;99.90;;;;;;4396457;28;661103;-71
2023/08/30 06:55:59;;;;;;;61.37;13.67;;;16.30;99.90;;;;;;4419348;28;660914;-71
2023/08/30 06:58:47;;;;;;;40.43;13.00;;;16.40;99.90;;;;;;4407053;28;661253;-72
2023/08/30 07:01:34;;;;;;;63.57;13.80;;;16.40;99.90;;;;;;4397591;28;661539;-72
2023/08/30 07:04:23;;;;;;;51.27;13.27;;;16.20;99.90;;;;;;4444702;28;660599;-72
2023/08/30 07:07:10;;;;;;;42.63;14.47;;;16.30;99.90;;;;;;4435308;28;662371;-71
2023/08/30 07:09:58;;;;;;;54.58;15.80;;;16.40;99.90;;;;;;4437736;27;660746;-72
2023/08/30 07:12:48;;;;;;;44.47;14.63;;;16.40;99.90;;;;;;4458245;27;662052;-72
2023/08/30 07:15:35;;;;;;;35.77;13.47;;;16.50;99.90;;;;;;4426615;27;662261;-72
2023/08/30 07:18:22;;;;;;;32.00;11.63;;;16.50;99.90;;;;;;4436796;27;660898;-72
2023/08/30 07:21:11;;;;;;;40.60;11.63;;;16.40;99.90;;;;;;4458214;27;661108;-72
2023/08/30 07:23:58;;;;;;;52.50;12.17;;;16.20;99.90;;;;;;4432680;27;661138;-72
2023/08/30 07:26:45;;;;;;;34.07;11.83;;;16.20;99.90;;;;;;4460081;27;662304;-71
2023/08/30 07:29:33;;;;;;;45.60;11.90;;;16.30;99.90;;;;;;4437122;27;661665;-72
2023/08/30 07:32:20;;;;;;;32.20;11.63;;;16.40;99.90;;;;;;4451365;27;661783;-72
2023/08/30 07:35:08;;;;;;;26.87;10.53;;;16.40;99.90;;;;;;4447273;27;661176;-72
2023/08/30 07:37:56;;;;;;;27.00;10.13;;;16.60;99.90;;;;;;4458035;27;661862;-72
2023/08/30 07:40:44;;;;;;;27.17;9.20;;;16.40;99.90;;;;;;4435930;27;660842;-72
2023/08/30 07:43:31;;;;;;;21.87;9.20;;;16.40;99.90;;;;;;4457890;27;659893;-72
2023/08/30 07:46:18;;;;;;;19.47;9.50;;;16.50;99.90;;;;;;4439232;27;660867;-72
2023/08/30 07:49:05;;;;;;;21.40;9.67;;;16.50;99.90;;;;;;4455189;27;659691;-72
2023/08/30 07:51:53;;;;;;;19.67;9.33;;;16.60;99.90;;;;;;4434856;27;659468;-72
2023/08/30 07:54:41;;;;;;;20.63;9.03;;;16.70;99.90;;;;;;4449068;28;660972;-72
2023/08/30 07:57:28;;;;;;;16.93;8.47;;;16.80;99.90;;;;;;4436451;28;659690;-72
2023/08/30 08:00:16;;;;;;;18.77;8.37;;;16.80;99.90;;;;;;4457883;27;659909;-72
2023/08/30 08:03:04;;;;;;;18.20;8.53;;;16.60;99.90;;;;;;4431939;28;660075;-71
2023/08/30 08:05:51;;;;;;;18.40;9.57;;;16.60;99.90;;;;;;4454743;27;659978;-71
2023/08/30 08:08:38;;;;;;;19.57;8.67;;;16.70;99.90;;;;;;4440175;27;660676;-72
2023/08/30 08:11:27;;;;;;;19.67;8.83;;;16.80;99.90;;;;;;4458666;28;659707;-71
2023/08/30 08:14:14;;;;;;;18.20;8.20;;;17.00;99.90;;;;;;4436405;27;659831;-72
2023/08/30 08:17:01;;;;;;;17.43;8.30;;;17.10;99.90;;;;;;4455868;27;659994;-71
2023/08/30 08:19:48;;;;;;;17.23;8.60;;;17.20;99.90;;;;;;4438080;28;660077;-71
2023/08/30 08:22:35;;;;;;;18.50;8.17;;;16.80;99.90;;;;;;4457770;27;661561;-71
2023/08/30 08:25:23;;;;;;;13.50;7.00;;;16.90;99.90;;;;;;4436796;27;659617;-72
2023/08/30 08:28:12;;;;;;;15.57;7.90;;;16.80;99.90;;;;;;4455408;27;661094;-71
2023/08/30 08:30:59;;;;;;;15.93;7.77;;;17.00;99.90;;;;;;4431924;27;661580;-72
2023/08/30 08:33:46;;;;;;;14.03;6.80;;;17.10;99.90;;;;;;4456540;27;659870;-71
2023/08/30 08:36:33;;;;;;;15.63;8.00;;;17.20;99.90;;;;;;4435624;27;660175;-71
2023/08/30 08:39:21;;;;;;;14.80;7.67;;;17.30;99.90;;;;;;4462253;27;659931;-71
2023/08/30 08:42:08;;;;;;;15.27;7.90;;;17.40;99.90;;;;;;4438722;27;659708;-71
2023/08/30 08:44:57;;;;;;;15.97;7.53;;;17.30;99.90;;;;;;4460112;27;660638;-71
2023/08/30 08:47:44;;;;;;;17.77;7.93;;;17.20;99.90;;;;;;4437092;27;661032;-71
2023/08/30 08:50:31;;;;;;;15.80;7.97;;;17.40;99.90;;;;;;4464058;27;659018;-71
2023/08/30 08:53:19;;;;;;;14.10;7.40;;;17.50;99.90;;;;;;4436978;27;659684;-71
2023/08/30 08:56:06;;;;;;;15.57;7.83;;;17.40;99.90;;;;;;4457757;27;662201;-71
2023/08/30 08:58:53;;;;;;;16.63;7.90;;;17.40;99.90;;;;;;4439264;28;660043;-71
2023/08/30 09:01:42;;;;;;;15.73;8.20;;;17.40;99.90;;;;;;4458140;27;660895;-71
2023/08/30 09:04:29;;;;;;;17.43;9.07;;;17.50;99.90;;;;;;4440520;27;660044;-70
2023/08/30 09:07:17;;;;;;;16.23;8.77;;;17.40;99.90;;;;;;4458183;27;660024;-71
2023/08/30 09:10:04;;;;;;;18.53;9.60;;;17.40;99.90;;;;;;4433619;27;660237;-71
2023/08/30 09:12:51;;;;;;;19.47;9.40;;;17.20;99.90;;;;;;4461269;27;659600;-71
2023/08/30 09:15:39;;;;;;;19.90;9.87;;;16.90;99.90;;;;;;4440432;27;661099;-71
2023/08/30 09:18:27;;;;;;;21.63;10.77;;;16.90;99.90;;;;;;4462503;27;661075;-71
2023/08/30 09:21:14;;;;;;;23.37;11.10;;;17.00;99.90;;;;;;4432489;27;661105;-70
2023/08/30 09:24:02;;;;;;;16.03;9.93;;;16.90;99.90;;;;;;4452122;27;660823;-71
2023/08/30 09:26:50;;;;;;;20.73;9.90;;;17.00;99.90;;;;;;4437610;27;660419;-71
2023/08/30 09:29:37;;;;;;;17.17;9.17;;;17.00;99.90;;;;;;4435720;27;659768;-71
2023/08/30 09:32:25;;;;;;;21.83;10.93;;;16.90;99.90;;;;;;4452862;27;660478;-71
2023/08/30 09:35:14;;;;;;;20.80;11.00;;;16.80;99.90;;;;;;4441009;27;660671;-71
2023/08/30 09:38:01;;;;;;;26.43;13.20;;;16.90;99.90;;;;;;4451046;27;660884;-71
2023/08/30 09:40:49;;;;;;;28.37;13.77;;;16.70;99.90;;;;;;4427155;27;662021;-71
2023/08/30 09:43:36;;;;;;;23.73;12.73;;;16.80;99.90;;;;;;4444161;27;660884;-71
2023/08/30 09:46:24;;;;;;;28.05;13.45;;;16.60;99.90;;;;;;4429700;27;660693;-71
2023/08/30 09:49:11;;;;;;;29.67;14.00;;;16.70;99.90;;;;;;4451402;27;660698;-71
2023/08/30 09:52:00;;;;;;;28.57;13.07;;;16.40;99.90;;;;;;4430494;27;661077;-71
2023/08/30 09:54:47;;;;;;;38.10;15.23;;;16.50;99.90;;;;;;4443024;27;660745;-71
2023/08/30 09:57:35;;;;;;;35.00;14.90;;;16.60;99.90;;;;;;4454100;27;662569;-71
2023/08/30 10:00:22;;;;;;;36.13;15.40;;;16.50;99.90;;;;;;4451207;27;660902;-71
2023/08/30 10:03:10;;;;;;;36.83;16.00;;;16.60;99.90;;;;;;4453032;27;661543;-70
2023/08/30 10:05:58;;;;;;;33.97;15.87;;;16.50;99.90;;;;;;4457150;27;662152;-71
2023/08/30 10:08:46;;;;;;;41.40;16.37;;;16.60;99.90;;;;;;4455022;27;661296;-70
2023/08/30 10:11:34;;;;;;;41.43;17.23;;;16.40;99.90;;;;;;4428556;27;660788;-71
2023/08/30 10:14:21;;;;;;;54.43;17.87;;;16.40;99.90;;;;;;4448362;27;660601;-70
2023/08/30 10:17:08;;;;;;;38.43;16.97;;;16.60;99.90;;;;;;4437441;27;660775;-71
2023/08/30 10:19:56;;;;;;;37.33;16.20;;;16.80;99.90;;;;;;4457155;27;660619;-71
2023/08/30 10:22:43;;;;;;;39.67;17.30;;;16.60;99.90;;;;;;4436143;27;660858;-71
2023/08/30 10:25:32;;;;;;;37.83;17.90;;;16.50;99.90;;;;;;4455435;27;661137;-71
2023/08/30 10:28:19;;;;;;;34.17;16.73;;;16.50;99.90;;;;;;4435923;27;660981;-71
2023/08/30 10:31:06;;;;;;;34.77;16.53;;;16.50;99.90;;;;;;4455554;27;661383;-71
2023/08/30 10:33:55;;;;;;;29.20;16.87;;;16.70;99.90;;;;;;4433711;27;660800;-71
2023/08/30 10:36:42;;;;;;;31.10;16.40;;;16.70;99.90;;;;;;4462327;27;661008;-70
2023/08/30 10:39:35;;;;;;;29.60;15.10;;;16.70;99.90;;;;;;4433805;28;662164;-69
2023/08/30 10:42:24;;;;;;;31.17;16.17;;;16.60;99.90;;;;;;4409433;27;661561;-71
2023/08/30 10:45:11;;;;;;;34.63;16.60;;;16.70;99.90;;;;;;4448958;27;661797;-67
2023/08/30 10:47:59;;;;;;;30.93;15.80;;;16.90;99.90;;;;;;4428670;27;661027;-71
2023/08/30 10:50:46;;;;;;;28.73;14.43;;;17.10;99.90;;;;;;4447432;27;661679;-70
2023/08/30 10:53:34;;;;;;;31.87;15.50;;;17.20;99.90;;;;;;4428457;27;660848;-71
2023/08/30 10:56:21;;;;;;;28.73;14.50;;;17.60;99.90;;;;;;4453666;27;660857;-71
2023/08/30 10:59:18;;;;;;;25.63;13.40;;;17.90;99.90;;;;;;4433901;27;660900;-71
2023/08/30 11:02:06;;;;;;;24.93;13.33;;;17.80;99.90;;;;;;4429157;27;661140;-71
2023/08/30 11:04:53;;;;;;;22.57;12.53;;;18.00;99.90;;;;;;4434877;27;660990;-69
2023/08/30 11:07:40;;;;;;;27.90;13.40;;;17.80;99.90;;;;;;4454242;28;660084;-70
2023/08/30 11:10:27;;;;;;;24.03;12.20;;;18.00;99.90;;;;;;4441941;27;661159;-70
2023/08/30 11:13:16;;;;;;;26.67;11.77;;;18.00;99.90;;;;;;4451823;27;661747;-70
2023/08/30 11:16:05;;;;;;;19.73;10.73;;;18.00;99.90;;;;;;4432381;27;660331;-70
2023/08/30 11:18:52;;;;;;;17.03;9.83;;;18.10;99.90;;;;;;4437071;27;660803;-70
2023/08/30 11:21:40;;;;;;;16.47;9.83;;;17.60;99.90;;;;;;4461172;27;660758;-70
2023/08/30 11:24:28;;;;;;;18.10;11.00;;;17.60;99.90;;;;;;4434962;27;659506;-70
2023/08/30 11:27:17;;;;;;;19.53;10.23;;;17.60;99.90;;;;;;4455732;27;661710;-70
2023/08/30 11:30:06;;;;;;;19.13;10.67;;;17.50;99.90;;;;;;4427784;27;661364;-69
2023/08/30 11:32:55;;;;;;;20.60;11.27;;;17.40;99.90;;;;;;4433372;27;661284;-70
2023/08/30 11:35:42;;;;;;;19.73;10.57;;;17.40;99.90;;;;;;4452790;27;660293;-69
2023/08/30 11:38:29;;;;;;;19.47;10.83;;;17.30;99.90;;;;;;4428393;27;662188;-70
2023/08/30 11:41:16;;;;;;;18.90;10.43;;;17.30;99.90;;;;;;4452683;27;660650;-70
2023/08/30 11:44:04;;;;;;;22.73;11.20;;;17.20;99.90;;;;;;4430647;27;661046;-70
2023/08/30 11:46:58;;;;;;;26.00;11.50;;;17.00;99.90;;;;;;4456480;27;660937;-69
2023/08/30 11:49:47;;;;;;;21.93;10.67;;;17.00;99.90;;;;;;4431130;27;661216;-70
2023/08/30 11:52:36;;;;;;;21.43;11.33;;;17.00;99.90;;;;;;4426295;27;661142;-70
2023/08/30 11:55:23;;;;;;;20.47;11.67;;;17.00;99.90;;;;;;4433734;27;660763;-70
2023/08/30 11:58:11;;;;;;;21.67;11.10;;;17.00;99.90;;;;;;4452664;27;661627;-70
2023/08/30 12:00:58;;;;;;;22.93;11.03;;;16.90;99.90;;;;;;4436124;27;660797;-70
2023/08/30 12:03:50;;;;;;;24.07;12.30;;;16.90;99.90;;;;;;4458019;27;661465;-70
2023/08/30 12:06:39;;;;;;;28.33;14.60;;;16.90;99.90;;;;;;4420919;27;660610;-70
2023/08/30 12:09:31;;;;;;;20.20;10.27;;;16.90;99.90;;;;;;4456972;27;660790;-70
2023/08/30 12:12:18;;;;;;;22.63;10.73;;;16.70;99.90;;;;;;4435652;27;660615;-70
2023/08/30 12:15:09;;;;;;;19.37;10.60;;;16.60;99.90;;;;;;4455507;27;661726;-70
2023/08/30 12:17:56;;;;;;;20.70;9.63;;;16.70;99.90;;;;;;4436512;27;660152;-70
2023/08/30 12:20:54;;;;;;;21.90;10.03;;;16.70;99.90;;;;;;4433924;27;659771;-70
2023/08/30 12:23:42;;;;;;;26.37;11.77;;;16.70;99.90;;;;;;4433530;27;660856;-69
2023/08/30 12:26:33;;;;;;;24.03;11.63;;;16.60;99.90;;;;;;4435282;27;662102;-69
2023/08/30 12:29:20;;;;;;;26.17;11.90;;;16.80;99.90;;;;;;4425649;27;661879;-69
2023/08/30 12:32:08;;;;;;;24.17;11.53;;;17.00;99.90;;;;;;4433151;27;660909;-69
2023/08/30 12:34:55;;;;;;;25.10;11.00;;;17.10;99.90;;;;;;4459256;27;661163;-68
2023/08/30 12:37:42;;;;;;;23.47;11.17;;;17.20;99.90;;;;;;4435130;27;660782;-70
2023/08/30 12:40:31;;;;;;;24.07;10.97;;;16.80;99.90;;;;;;4456922;27;661932;-68
2023/08/30 12:43:19;;;;;;;16.90;9.50;;;16.80;99.90;;;;;;4437581;27;662521;-68
2023/08/30 12:46:07;;;;;;;27.43;12.27;;;17.10;99.90;;;;;;4452629;27;660350;-68
2023/08/30 12:48:54;;;;;;;29.43;12.30;;;17.20;99.90;;;;;;4432399;27;661186;-68
2023/08/30 12:51:41;;;;;;;29.30;12.23;;;17.30;99.90;;;;;;4458337;27;660882;-68
2023/08/30 12:54:28;;;;;;;30.33;12.90;;;17.40;99.90;;;;;;4434871;27;662708;-68
2023/08/30 12:57:17;;;;;;;26.00;11.90;;;17.30;99.90;;;;;;4451143;27;661939;-69
2023/08/30 13:00:05;;;;;;;28.67;12.83;;;17.50;99.90;;;;;;4434035;27;661829;-68
2023/08/30 13:02:52;;;;;;;33.70;14.73;;;17.50;99.90;;;;;;4436654;27;660803;-69
2023/08/30 13:05:40;;;;;;;31.77;13.83;;;17.50;99.90;;;;;;4455151;27;661402;-69
2023/08/30 13:08:27;;;;;;;30.83;13.63;;;17.40;99.90;;;;;;4450410;27;660674;-69
2023/08/30 13:11:15;;;;;;;35.63;15.20;;;17.50;99.90;;;;;;4452881;27;661087;-69
2023/08/30 13:14:04;;;;;;;42.27;16.30;;;17.50;99.90;;;;;;4454192;27;661753;-69
2023/08/30 13:16:51;;;;;;;44.23;15.37;;;17.30;99.90;;;;;;4458502;27;660322;-69
2023/08/30 13:19:38;;;;;;;34.50;13.13;;;17.40;99.90;;;;;;4435527;27;660518;-69
2023/08/30 13:22:26;;;;;;;30.03;11.73;;;17.40;99.90;;;;;;4452209;28;660586;-68
2023/08/30 13:25:13;;;;;;;26.73;10.23;;;17.20;99.90;;;;;;4436177;27;660742;-68
2023/08/30 13:28:00;;;;;;;18.23;8.17;;;17.00;99.90;;;;;;4457235;27;661397;-68
2023/08/30 13:30:51;;;;;;;21.00;9.33;;;16.90;99.90;;;;;;4438736;27;660259;-69
2023/08/30 13:33:38;;;;;;;19.77;7.87;;;17.00;99.90;;;;;;4431246;27;659621;-69
2023/08/30 13:36:25;;;;;;;17.53;7.60;;;16.90;99.90;;;;;;4448097;27;660048;-69
2023/08/30 13:39:12;;;;;;;16.13;7.67;;;16.90;99.90;;;;;;4436382;27;660338;-70
2023/08/30 13:42:00;;;;;;;23.10;8.77;;;16.80;99.90;;;;;;4452578;27;661277;-68
2023/08/30 13:44:47;;;;;;;21.03;9.03;;;16.90;99.90;;;;;;4451927;27;660449;-70
2023/08/30 13:47:36;;;;;;;21.97;8.87;;;17.00;99.90;;;;;;4452907;27;660469;-69
2023/08/30 13:50:23;;;;;;;16.30;8.93;;;17.00;99.90;;;;;;4431583;28;660520;-70
2023/08/30 13:53:12;;;;;;;16.30;7.60;;;17.00;99.90;;;;;;4460770;27;659989;-70
2023/08/30 13:55:59;;;;;;;17.90;8.07;;;17.00;99.90;;;;;;4437745;27;659834;-70
2023/08/30 13:58:46;;;;;;;18.20;8.10;;;17.00;99.90;;;;;;4456087;27;660007;-70
2023/08/30 14:01:34;;;;;;;16.90;8.10;;;16.90;99.90;;;;;;4437449;27;660365;-70